createdAt,value
2022-12-11T00:00:27.720Z,77.99
2022-12-11T00:02:56.553Z,77.96
2022-12-11T00:05:25.089Z,77.96
2022-12-11T00:07:52.831Z,77.87
2022-12-11T00:10:20.663Z,77.43
2022-12-11T00:12:49.607Z,77.70
2022-12-11T00:15:17.088Z,77.88
2022-12-11T00:17:44.703Z,77.68
2022-12-11T00:20:12.771Z,77.95
2022-12-11T00:22:40.328Z,77.93
2022-12-11T00:25:08.685Z,77.70
2022-12-11T00:27:36.634Z,77.75
2022-12-11T00:30:06.997Z,77.91
2022-12-11T00:32:37.574Z,77.64
2022-12-11T00:35:05.945Z,77.67
2022-12-11T00:37:33.548Z,77.69
2022-12-11T00:40:01.055Z,78.08
2022-12-11T00:42:28.505Z,77.53
2022-12-11T00:44:56.385Z,77.47
2022-12-11T00:47:25.199Z,77.63
2022-12-11T00:49:52.863Z,77.77
2022-12-11T00:52:20.268Z,77.73
2022-12-11T00:54:47.811Z,77.88
2022-12-11T00:57:15.307Z,77.71
2022-12-11T00:59:42.773Z,77.61
2022-12-11T01:02:10.213Z,77.63
2022-12-11T01:04:39.009Z,77.69
2022-12-11T01:07:06.460Z,77.88
2022-12-11T01:09:51.861Z,77.84
2022-12-11T01:12:19.356Z,77.73
2022-12-11T01:14:46.782Z,77.63
2022-12-11T01:17:14.327Z,77.46
2022-12-11T01:19:43.147Z,77.40
2022-12-11T01:22:10.586Z,77.54
2022-12-11T01:24:38.306Z,77.49
2022-12-11T01:27:05.784Z,77.59
2022-12-11T01:29:33.509Z,77.58
2022-12-11T01:32:00.926Z,77.74
2022-12-11T01:34:30.161Z,77.62
2022-12-11T01:36:59.015Z,77.63
2022-12-11T01:39:26.538Z,77.49
2022-12-11T01:41:58.348Z,77.44
2022-12-11T01:45:17.281Z,77.89
2022-12-11T01:47:45.241Z,77.52
2022-12-11T01:50:12.935Z,77.64
2022-12-11T01:52:43.177Z,77.46
2022-12-11T01:55:11.225Z,77.56
2022-12-11T01:57:40.448Z,77.62
2022-12-11T02:00:09.292Z,77.69
2022-12-11T02:02:40.575Z,77.54
2022-12-11T02:05:10.211Z,77.55
2022-12-11T02:07:40.946Z,77.56
2022-12-11T02:10:12.562Z,77.44
2022-12-11T02:12:49.108Z,77.50
2022-12-11T02:15:21.741Z,77.60
2022-12-11T02:17:55.665Z,77.50
2022-12-11T02:20:29.455Z,77.53
2022-12-11T02:23:15.987Z,77.49
2022-12-11T02:25:52.952Z,77.39
2022-12-11T02:28:26.520Z,77.55
2022-12-11T02:31:00.796Z,77.38
2022-12-11T02:33:35.237Z,77.31
2022-12-11T02:36:04.838Z,77.48
2022-12-11T02:38:35.974Z,77.47
2022-12-11T02:41:05.439Z,77.06
2022-12-11T02:43:36.373Z,77.74
2022-12-11T02:46:07.334Z,77.13
2022-12-11T02:48:36.214Z,77.49
2022-12-11T02:51:07.281Z,77.14
2022-12-11T02:53:39.132Z,77.48
2022-12-11T02:56:12.267Z,77.37
2022-12-11T02:58:46.533Z,77.34
2022-12-11T03:01:14.109Z,77.20
2022-12-11T03:03:41.694Z,77.50
2022-12-11T03:06:13.430Z,77.31
2022-12-11T03:08:40.921Z,77.12
2022-12-11T03:11:11.451Z,77.32
2022-12-11T03:13:41.974Z,77.24
2022-12-11T03:16:18.901Z,77.29
2022-12-11T03:18:53.392Z,77.49
2022-12-11T03:21:29.062Z,77.32
2022-12-11T03:24:04.839Z,77.11
2022-12-11T03:26:38.028Z,77.34
2022-12-11T03:29:14.049Z,77.53
2022-12-11T03:31:45.119Z,77.63
2022-12-11T03:34:19.479Z,77.50
2022-12-11T03:36:50.326Z,77.39
2022-12-11T03:39:21.857Z,77.08
2022-12-11T03:41:51.760Z,77.25
2022-12-11T03:44:22.322Z,77.18
2022-12-11T03:46:53.818Z,77.15
2022-12-11T03:49:25.003Z,77.26
2022-12-11T03:51:55.426Z,77.44
2022-12-11T03:54:24.764Z,77.28
2022-12-11T03:56:56.405Z,77.26
2022-12-11T03:59:25.711Z,77.26
2022-12-11T04:01:53.376Z,77.28
2022-12-11T04:04:21.350Z,77.38
2022-12-11T04:06:48.941Z,77.22
2022-12-11T04:09:16.450Z,77.11
2022-12-11T04:11:43.969Z,77.10
2022-12-11T04:14:31.449Z,77.39
2022-12-11T04:17:01.643Z,77.24
2022-12-11T04:19:46.719Z,77.11
2022-12-11T04:22:33.987Z,76.93
2022-12-11T04:25:01.892Z,77.18
2022-12-11T04:27:46.824Z,77.40
2022-12-11T04:30:16.902Z,77.06
2022-12-11T04:32:45.748Z,77.01
2022-12-11T04:35:14.366Z,77.26
2022-12-11T04:37:42.579Z,77.17
2022-12-11T04:40:43.740Z,77.02
2022-12-11T04:43:11.395Z,77.15
2022-12-11T04:45:38.878Z,77.08
2022-12-11T04:48:08.514Z,77.17
2022-12-11T04:50:36.114Z,77.04
2022-12-11T04:53:03.673Z,76.96
2022-12-11T04:55:31.132Z,77.10
2022-12-11T04:57:58.595Z,77.22
2022-12-11T05:00:26.050Z,77.51
2022-12-11T05:02:53.681Z,76.87
2022-12-11T05:05:22.550Z,77.00
2022-12-11T05:07:50.489Z,76.81
2022-12-11T05:10:17.955Z,77.00
2022-12-11T05:12:45.407Z,76.93
2022-12-11T05:15:13.102Z,77.02
2022-12-11T05:17:40.888Z,77.14
2022-12-11T05:20:09.428Z,76.93
2022-12-11T05:22:38.466Z,76.86
2022-12-11T05:25:06.905Z,76.66
2022-12-11T05:27:34.742Z,76.91
2022-12-11T05:30:02.185Z,76.81
2022-12-11T05:32:29.622Z,76.63
2022-12-11T05:34:57.144Z,76.82
2022-12-11T05:37:24.568Z,76.69
2022-12-11T05:39:53.321Z,76.91
2022-12-11T05:42:24.098Z,76.80
2022-12-11T05:44:55.979Z,76.91
2022-12-11T05:47:23.439Z,76.98
2022-12-11T05:49:50.947Z,76.86
2022-12-11T05:52:18.509Z,76.70
2022-12-11T05:54:45.942Z,76.65
2022-12-11T05:57:14.734Z,76.87
2022-12-11T05:59:42.266Z,76.85
2022-12-11T06:02:09.912Z,76.53
2022-12-11T06:04:37.557Z,76.50
2022-12-11T06:07:05.654Z,76.53
2022-12-11T06:09:33.215Z,76.93
2022-12-11T06:12:00.669Z,76.78
2022-12-11T06:14:29.423Z,76.47
2022-12-11T06:16:56.928Z,76.61
2022-12-11T06:19:24.368Z,76.46
2022-12-11T06:21:51.878Z,76.43
2022-12-11T06:24:19.300Z,76.56
2022-12-11T06:26:46.902Z,76.59
2022-12-11T06:29:14.366Z,76.37
2022-12-11T06:31:43.333Z,76.20
2022-12-11T06:34:13.549Z,76.24
2022-12-11T06:36:47.488Z,76.14
2022-12-11T06:39:14.988Z,76.21
2022-12-11T06:41:42.464Z,76.04
2022-12-11T06:44:10.087Z,75.91
2022-12-11T06:46:37.629Z,76.01
2022-12-11T06:49:06.450Z,76.02
2022-12-11T06:51:33.956Z,75.74
2022-12-11T06:54:01.391Z,75.87
2022-12-11T06:56:28.906Z,76.07
2022-12-11T06:58:57.081Z,75.59
2022-12-11T07:01:27.253Z,75.38
2022-12-11T07:03:57.563Z,75.35
2022-12-11T07:06:28.356Z,75.11
2022-12-11T07:08:56.327Z,75.08
2022-12-11T07:11:23.886Z,75.03
2022-12-11T07:13:51.684Z,74.83
2022-12-11T07:16:19.495Z,74.71
2022-12-11T07:19:01.965Z,74.68
2022-12-11T07:21:30.907Z,74.60
2022-12-11T07:23:58.612Z,74.88
2022-12-11T07:27:51.734Z,74.30
2022-12-11T07:30:19.241Z,74.53
2022-12-11T07:32:46.771Z,74.44
2022-12-11T07:35:14.458Z,73.76
2022-12-11T07:37:44.852Z,73.79
2022-12-11T07:40:13.594Z,73.53
2022-12-11T07:42:45.933Z,73.73
2022-12-11T07:45:14.314Z,73.51
2022-12-11T07:47:41.835Z,73.43
2022-12-11T07:50:10.118Z,73.47
2022-12-11T07:52:37.824Z,73.15
2022-12-11T07:55:07.212Z,73.44
2022-12-11T07:57:34.689Z,73.30
2022-12-11T08:00:02.483Z,72.95
2022-12-11T08:02:40.262Z,72.39
2022-12-11T08:05:09.478Z,72.90
2022-12-11T08:07:37.338Z,72.40
2022-12-11T08:10:06.889Z,72.97
2022-12-11T08:12:34.501Z,73.14
2022-12-11T08:15:02.054Z,73.08
2022-12-11T08:17:31.912Z,73.28
2022-12-11T08:20:04.108Z,73.04
2022-12-11T08:22:31.828Z,72.90
2022-12-11T08:24:59.367Z,73.16
2022-12-11T08:27:30.421Z,72.89
2022-12-11T08:29:57.966Z,73.37
2022-12-11T08:32:25.421Z,72.99
2022-12-11T08:34:52.852Z,72.82
2022-12-11T08:37:20.322Z,73.15
2022-12-11T08:39:47.919Z,72.57
2022-12-11T08:42:15.348Z,73.20
2022-12-11T08:44:44.095Z,73.10
2022-12-11T08:47:11.595Z,73.09
2022-12-11T08:49:39.170Z,73.10
2022-12-11T08:52:06.855Z,72.95
2022-12-11T08:54:34.346Z,73.30
2022-12-11T08:57:01.790Z,73.23
2022-12-11T08:59:29.353Z,73.41
2022-12-11T09:01:58.355Z,73.33
2022-12-11T09:04:25.800Z,73.17
2022-12-11T09:06:53.403Z,73.18
2022-12-11T09:09:20.925Z,72.80
2022-12-11T09:11:49.617Z,73.06
2022-12-11T09:14:17.407Z,73.05
2022-12-11T09:16:44.925Z,73.01
2022-12-11T09:19:16.373Z,73.20
2022-12-11T09:21:44.482Z,73.17
2022-12-11T09:24:13.431Z,72.80
2022-12-11T09:26:41.717Z,72.60
2022-12-11T09:29:10.425Z,72.85
2022-12-11T09:31:38.457Z,72.46
2022-12-11T09:34:08.203Z,72.37
2022-12-11T09:36:39.351Z,72.87
2022-12-11T09:39:08.974Z,72.66
2022-12-11T09:41:40.543Z,72.65
2022-12-11T09:44:22.965Z,72.63
2022-12-11T09:46:52.601Z,72.74
2022-12-11T09:49:28.314Z,72.81
2022-12-11T09:52:08.341Z,72.68
2022-12-11T09:54:36.724Z,72.80
2022-12-11T09:57:15.425Z,72.58
2022-12-11T10:00:04.829Z,72.85
2022-12-11T10:02:48.184Z,72.81
2022-12-11T10:05:22.933Z,72.61
2022-12-11T10:08:00.743Z,72.41
2022-12-11T10:10:42.750Z,72.46
2022-12-11T10:13:23.839Z,72.58
2022-12-11T10:15:58.548Z,72.62
2022-12-11T10:18:28.897Z,72.61
2022-12-11T10:20:56.967Z,72.67
2022-12-11T10:23:35.609Z,72.85
2022-12-11T10:26:06.970Z,72.59
2022-12-11T10:28:36.003Z,72.48
2022-12-11T10:31:13.959Z,72.59
2022-12-11T10:33:50.801Z,72.58
2022-12-11T10:36:26.159Z,72.59
2022-12-11T10:38:55.140Z,72.26
2022-12-11T10:41:37.627Z,72.51
2022-12-11T10:44:16.456Z,72.35
2022-12-11T10:46:44.807Z,72.23
2022-12-11T10:49:23.164Z,72.30
2022-12-11T10:51:51.327Z,72.10
2022-12-11T10:54:32.328Z,72.54
2022-12-11T10:57:01.308Z,71.97
2022-12-11T10:59:36.483Z,72.17
2022-12-11T11:02:06.391Z,72.07
2022-12-11T11:04:38.037Z,72.28
2022-12-11T11:07:13.532Z,72.33
2022-12-11T11:09:43.005Z,72.46
2022-12-11T11:12:26.394Z,72.53
2022-12-11T11:15:02.369Z,72.54
2022-12-11T11:17:35.351Z,72.39
2022-12-11T11:20:13.776Z,72.20
2022-12-11T11:22:45.887Z,72.27
2022-12-11T11:25:20.797Z,72.20
2022-12-11T11:27:52.709Z,72.37
2022-12-11T11:30:23.042Z,72.28
2022-12-11T11:32:52.870Z,72.44
2022-12-11T11:35:22.644Z,72.53
2022-12-11T11:38:01.902Z,72.39
2022-12-11T11:40:32.522Z,72.39
2022-12-11T11:43:08.816Z,72.41
2022-12-11T11:45:44.165Z,72.55
2022-12-11T11:48:25.945Z,72.54
2022-12-11T11:50:53.995Z,72.50
2022-12-11T11:53:28.061Z,72.25
2022-12-11T11:56:06.424Z,72.15
2022-12-11T11:58:40.369Z,72.31
2022-12-11T12:01:15.636Z,72.32
2022-12-11T12:03:43.384Z,72.32
2022-12-11T12:06:20.040Z,72.22
2022-12-11T12:08:54.647Z,72.31
2022-12-11T12:11:38.995Z,72.09
2022-12-11T12:14:50.168Z,72.13
2022-12-11T12:17:16.675Z,72.13
2022-12-11T12:19:50.978Z,71.86
2022-12-11T12:22:33.968Z,72.30
2022-12-11T12:25:12.096Z,72.14
2022-12-11T12:27:52.406Z,72.05
2022-12-11T12:30:23.243Z,71.79
2022-12-11T12:33:06.591Z,72.23
2022-12-11T12:35:37.038Z,72.38
2022-12-11T12:38:11.735Z,72.07
2022-12-11T12:40:55.610Z,72.19
2022-12-11T12:43:46.598Z,72.05
2022-12-11T12:46:28.882Z,72.14
2022-12-11T12:48:59.492Z,72.25
2022-12-11T12:51:28.024Z,72.17
2022-12-11T12:53:57.999Z,72.17
2022-12-11T12:56:26.830Z,72.39
2022-12-11T12:58:55.754Z,72.31
2022-12-11T13:01:26.719Z,72.28
2022-12-11T13:03:57.342Z,72.38
2022-12-11T13:06:35.013Z,72.04
2022-12-11T13:09:16.259Z,72.27
2022-12-11T13:11:44.829Z,72.36
2022-12-11T13:14:28.817Z,72.40
2022-12-11T13:17:08.654Z,72.28
2022-12-11T13:19:42.117Z,72.28
2022-12-11T13:22:23.112Z,72.21
2022-12-11T13:25:01.560Z,72.30
2022-12-11T13:27:39.876Z,72.16
2022-12-11T13:30:23.373Z,71.90
2022-12-11T13:33:01.955Z,72.16
2022-12-11T13:35:30.376Z,72.06
2022-12-11T13:38:05.670Z,71.95
2022-12-11T13:40:39.996Z,72.14
2022-12-11T13:43:16.317Z,72.11
2022-12-11T13:45:50.031Z,72.16
2022-12-11T13:48:23.808Z,72.19
2022-12-11T13:50:52.971Z,72.08
2022-12-11T13:53:23.303Z,72.19
2022-12-11T13:55:58.251Z,72.26
2022-12-11T13:58:27.636Z,72.16
2022-12-11T14:01:05.152Z,72.31
2022-12-11T14:03:33.350Z,72.16
2022-12-11T14:06:02.747Z,72.15
2022-12-11T14:08:35.247Z,72.35
2022-12-11T14:11:03.799Z,72.19
2022-12-11T14:13:34.423Z,72.07
2022-12-11T14:16:04.915Z,72.46
2022-12-11T14:18:35.894Z,72.29
2022-12-11T14:21:05.999Z,72.27
2022-12-11T14:23:35.266Z,72.39
2022-12-11T14:26:06.520Z,72.31
2022-12-11T14:28:38.948Z,72.43
2022-12-11T14:31:08.696Z,72.36
2022-12-11T14:33:39.421Z,72.36
2022-12-11T14:36:08.639Z,72.36
2022-12-11T14:38:38.978Z,72.37
2022-12-11T14:41:13.255Z,72.36
2022-12-11T14:43:44.985Z,72.29
2022-12-11T14:46:19.712Z,72.42
2022-12-11T14:48:53.854Z,72.53
2022-12-11T14:51:29.614Z,72.25
2022-12-11T14:53:57.611Z,72.32
2022-12-11T14:56:28.567Z,72.20
2022-12-11T14:58:59.298Z,72.29
2022-12-11T15:01:30.402Z,72.27
2022-12-11T15:04:07.080Z,72.49
2022-12-11T15:06:36.252Z,72.34
2022-12-11T15:09:22.657Z,72.29
2022-12-11T15:11:51.656Z,72.44
2022-12-11T15:14:21.700Z,72.44
2022-12-11T15:16:55.948Z,72.48
2022-12-11T15:19:28.122Z,72.51
2022-12-11T15:21:57.609Z,72.58
2022-12-11T15:24:31.921Z,72.74
2022-12-11T15:27:01.835Z,72.56
2022-12-11T15:29:34.820Z,72.56
2022-12-11T15:32:18.561Z,72.55
2022-12-11T15:34:47.620Z,72.53
2022-12-11T15:37:20.129Z,72.56
2022-12-11T15:39:47.610Z,72.56
2022-12-11T15:42:18.979Z,72.59
2022-12-11T15:44:46.471Z,72.77
2022-12-11T15:47:16.827Z,72.59
2022-12-11T15:49:44.345Z,72.53
2022-12-11T15:52:11.802Z,72.80
2022-12-11T15:54:39.299Z,72.56
2022-12-11T15:57:13.324Z,72.61
2022-12-11T15:59:41.077Z,72.60
2022-12-11T16:02:12.206Z,73.05
2022-12-11T16:04:41.189Z,72.52
2022-12-11T16:07:16.182Z,72.54
2022-12-11T16:09:43.714Z,72.83
2022-12-11T16:12:11.378Z,72.58
2022-12-11T16:14:39.219Z,73.01
2022-12-11T16:17:07.351Z,72.54
2022-12-11T16:19:35.352Z,72.73
2022-12-11T16:22:04.462Z,72.78
2022-12-11T16:24:32.312Z,73.00
2022-12-11T16:26:59.790Z,72.66
2022-12-11T16:29:27.729Z,72.89
2022-12-11T16:31:55.396Z,72.84
2022-12-11T16:34:25.866Z,72.65
2022-12-11T16:36:53.410Z,72.86
2022-12-11T16:39:22.156Z,72.80
2022-12-11T16:41:49.659Z,72.63
2022-12-11T16:44:20.482Z,72.92
2022-12-11T16:46:48.338Z,72.59
2022-12-11T16:49:16.379Z,72.83
2022-12-11T16:51:44.495Z,72.70
2022-12-11T16:54:12.403Z,73.00
2022-12-11T16:56:41.307Z,72.71
2022-12-11T16:59:09.034Z,72.78
2022-12-11T17:01:36.644Z,72.91
2022-12-11T17:04:04.178Z,72.84
2022-12-11T17:06:32.095Z,72.98
2022-12-11T17:08:59.645Z,72.79
2022-12-11T17:11:27.129Z,72.91
2022-12-11T17:13:57.014Z,72.92
2022-12-11T17:16:28.889Z,73.00
2022-12-11T17:18:57.017Z,73.13
2022-12-11T17:21:24.819Z,72.86
2022-12-11T17:23:52.878Z,72.75
2022-12-11T17:26:20.393Z,73.37
2022-12-11T17:28:47.932Z,73.05
2022-12-11T17:31:18.425Z,73.06
2022-12-11T17:33:47.336Z,73.02
2022-12-11T17:36:17.502Z,73.10
2022-12-11T17:38:45.620Z,72.41
2022-12-11T17:41:20.323Z,73.21
2022-12-11T17:43:48.980Z,73.09
2022-12-11T17:46:18.569Z,72.84
2022-12-11T17:48:46.597Z,72.99
2022-12-11T17:51:20.980Z,73.00
2022-12-11T17:53:48.616Z,73.32
2022-12-11T17:56:16.476Z,73.15
2022-12-11T17:58:44.265Z,73.16
2022-12-11T18:01:12.322Z,73.02
2022-12-11T18:03:41.930Z,72.98
2022-12-11T18:06:12.682Z,73.14
2022-12-11T18:08:41.089Z,73.04
2022-12-11T18:11:11.217Z,73.16
2022-12-11T18:13:39.116Z,73.40
2022-12-11T18:16:09.371Z,73.22
2022-12-11T18:18:37.299Z,73.43
2022-12-11T18:21:06.931Z,73.10
2022-12-11T18:23:34.908Z,73.18
2022-12-11T18:26:03.466Z,73.21
2022-12-11T18:28:32.337Z,73.40
2022-12-11T18:31:00.876Z,73.23
2022-12-11T18:33:29.246Z,73.34
2022-12-11T18:35:57.381Z,73.27
2022-12-11T18:38:26.289Z,73.44
2022-12-11T18:40:53.860Z,73.41
2022-12-11T18:43:21.307Z,73.32
2022-12-11T18:45:48.965Z,73.58
2022-12-11T18:48:16.510Z,73.40
2022-12-11T18:50:47.377Z,73.66
2022-12-11T18:53:15.182Z,73.50
2022-12-11T18:55:45.459Z,73.52
2022-12-11T18:58:14.589Z,73.38
2022-12-11T19:00:43.634Z,73.49
2022-12-11T19:03:12.031Z,73.39
2022-12-11T19:05:42.405Z,73.58
2022-12-11T19:08:11.508Z,73.38
2022-12-11T19:10:45.023Z,73.63
2022-12-11T19:13:13.016Z,73.74
2022-12-11T19:15:41.859Z,73.36
2022-12-11T19:18:10.215Z,73.44
2022-12-11T19:21:03.131Z,73.53
2022-12-11T19:23:26.881Z,73.47
2022-12-11T19:25:55.808Z,73.74
2022-12-11T19:28:24.655Z,73.54
2022-12-11T19:30:52.363Z,73.52
2022-12-11T19:33:19.837Z,73.52
2022-12-11T19:35:47.372Z,73.30
2022-12-11T19:38:14.858Z,73.63
2022-12-11T19:40:42.992Z,73.72
2022-12-11T19:43:12.058Z,73.97
2022-12-11T19:45:41.450Z,73.79
2022-12-11T19:48:13.199Z,73.69
2022-12-11T19:50:40.796Z,73.96
2022-12-11T19:53:08.317Z,73.61
2022-12-11T19:55:35.797Z,73.63
2022-12-11T19:58:03.370Z,73.92
2022-12-11T20:00:38.129Z,73.77
2022-12-11T20:03:05.656Z,73.89
2022-12-11T20:05:33.110Z,73.94
2022-12-11T20:08:20.545Z,73.68
2022-12-11T20:10:48.112Z,74.01
2022-12-11T20:13:16.133Z,73.92
2022-12-11T20:15:44.956Z,73.98
2022-12-11T20:18:18.268Z,73.98
2022-12-11T20:20:46.169Z,74.39
2022-12-11T20:23:13.649Z,74.14
2022-12-11T20:25:41.270Z,73.96
2022-12-11T20:28:08.743Z,73.95
2022-12-11T20:30:36.494Z,74.00
2022-12-11T20:33:05.338Z,73.90
2022-12-11T20:35:34.818Z,73.87
2022-12-11T20:38:04.022Z,73.89
2022-12-11T20:40:31.562Z,73.96
2022-12-11T20:42:59.252Z,74.24
2022-12-11T20:45:27.138Z,73.88
2022-12-11T20:47:54.708Z,74.29
2022-12-11T20:50:23.610Z,74.07
2022-12-11T20:52:51.122Z,74.09
2022-12-11T20:55:20.799Z,74.11
2022-12-11T20:57:48.264Z,74.16
2022-12-11T21:00:16.949Z,74.09
2022-12-11T21:02:44.637Z,74.00
2022-12-11T21:05:12.323Z,74.31
2022-12-11T21:07:41.268Z,74.05
2022-12-11T21:10:10.131Z,74.25
2022-12-11T21:12:38.188Z,74.09
2022-12-11T21:15:07.289Z,74.19
2022-12-11T21:17:35.725Z,74.23
2022-12-11T21:20:03.287Z,74.17
2022-12-11T21:22:30.796Z,74.29
2022-12-11T21:24:59.590Z,74.39
2022-12-11T21:27:27.219Z,74.21
2022-12-11T21:29:55.034Z,74.25
2022-12-11T21:32:22.667Z,74.16
2022-12-11T21:34:51.115Z,74.29
2022-12-11T21:37:18.619Z,74.46
2022-12-11T21:39:46.133Z,74.37
2022-12-11T21:42:14.998Z,74.35
2022-12-11T21:47:29.981Z,74.29
2022-12-11T21:49:57.515Z,74.29
2022-12-11T21:52:25.060Z,74.35
2022-12-11T21:54:52.563Z,74.33
2022-12-11T21:57:26.066Z,74.47
2022-12-11T21:59:54.284Z,74.39
2022-12-11T22:02:22.011Z,74.17
2022-12-11T22:04:49.709Z,74.34
2022-12-11T22:07:17.204Z,74.47
2022-12-11T22:09:44.861Z,74.39
2022-12-11T22:12:21.382Z,74.58
2022-12-11T22:14:50.690Z,74.70
2022-12-11T22:17:18.858Z,74.77
2022-12-11T22:19:47.345Z,74.68
2022-12-11T22:22:15.621Z,74.63
2022-12-11T22:24:43.144Z,74.84
2022-12-11T22:27:10.761Z,74.64
2022-12-11T22:29:38.215Z,74.73
2022-12-11T22:32:07.143Z,74.66
2022-12-11T22:34:34.591Z,74.68
2022-12-11T22:37:02.073Z,74.58
2022-12-11T22:39:29.518Z,74.94
2022-12-11T22:41:56.943Z,74.75
2022-12-11T22:44:24.401Z,74.64
2022-12-11T22:46:51.866Z,74.96
2022-12-11T22:49:20.885Z,74.89
2022-12-11T22:51:49.279Z,74.79
2022-12-11T22:54:17.301Z,74.86
2022-12-11T22:56:44.726Z,75.16
2022-12-11T22:59:12.150Z,74.67
2022-12-11T23:01:40.422Z,74.94
2022-12-11T23:04:07.923Z,74.71
2022-12-11T23:06:36.698Z,74.98
2022-12-11T23:09:05.019Z,74.88
2022-12-11T23:11:35.515Z,74.78
2022-12-11T23:14:03.906Z,74.89
2022-12-11T23:16:31.594Z,74.85
2022-12-11T23:18:59.697Z,74.92
2022-12-11T23:21:28.682Z,75.04
2022-12-11T23:23:58.381Z,75.06
2022-12-11T23:26:27.199Z,75.05
2022-12-11T23:28:55.553Z,75.03
2022-12-11T23:31:24.056Z,74.83
2022-12-11T23:33:51.815Z,74.90
2022-12-11T23:36:19.290Z,75.39
2022-12-11T23:38:52.572Z,75.15
2022-12-11T23:41:23.301Z,75.11
2022-12-11T23:43:50.719Z,75.08
2022-12-11T23:46:20.650Z,75.25
2022-12-11T23:48:48.697Z,75.04
2022-12-11T23:51:19.319Z,75.21
2022-12-11T23:53:47.205Z,75.37
2022-12-11T23:56:17.076Z,75.23
2022-12-11T23:58:45.941Z,75.62
